createdAt,value
2019-05-12T00:00:43.674Z,93.94
2019-05-12T00:01:43.697Z,93.94
2019-05-12T00:02:43.703Z,93.46
2019-05-12T00:03:43.745Z,93.41
2019-05-12T00:04:43.740Z,93.65
2019-05-12T00:05:43.747Z,93.37
2019-05-12T00:06:43.771Z,93.55
2019-05-12T00:07:43.781Z,93.27
2019-05-12T00:08:43.793Z,93.27
2019-05-12T00:09:43.806Z,93.37
2019-05-12T00:10:43.823Z,94.03
2019-05-12T00:11:43.844Z,93.46
2019-05-12T00:12:43.853Z,93.46
2019-05-12T00:13:43.871Z,93.75
2019-05-12T00:14:43.885Z,93.46
2019-05-12T00:15:43.899Z,93.65
2019-05-12T00:16:43.918Z,93.37
2019-05-12T00:17:44.069Z,93.55
2019-05-12T00:18:43.945Z,93.18
2019-05-12T00:19:43.965Z,92.94
2019-05-12T00:20:43.976Z,92.66
2019-05-12T00:21:43.990Z,92.75
2019-05-12T00:22:44.006Z,93.23
2019-05-12T00:23:44.027Z,92.75
2019-05-12T00:24:44.043Z,93.13
2019-05-12T00:25:44.050Z,92.56
2019-05-12T00:26:44.066Z,93.13
2019-05-12T00:27:44.081Z,93.04
2019-05-12T00:28:44.097Z,93.32
2019-05-12T00:29:44.112Z,92.37
2019-05-12T00:30:44.127Z,92.85
2019-05-12T00:31:44.147Z,92.75
2019-05-12T00:32:44.162Z,92.56
2019-05-12T00:33:44.169Z,92.85
2019-05-12T00:34:44.188Z,92.66
2019-05-12T00:35:44.202Z,92.75
2019-05-12T00:36:44.220Z,93.23
2019-05-12T00:37:44.242Z,92.85
2019-05-12T00:38:44.263Z,92.56
2019-05-12T00:39:44.298Z,92.32
2019-05-12T00:40:44.291Z,93.23
2019-05-12T00:41:44.666Z,92.66
2019-05-12T00:42:44.309Z,91.47
2019-05-12T00:43:44.444Z,91.75
2019-05-12T00:44:44.337Z,92.61
2019-05-12T00:45:44.350Z,92.23
2019-05-12T00:46:44.367Z,91.66
2019-05-12T00:47:44.380Z,92.71
2019-05-12T00:48:44.401Z,92.42
2019-05-12T00:49:44.410Z,92.42
2019-05-12T00:50:44.424Z,92.32
2019-05-12T00:51:44.449Z,91.85
2019-05-12T00:52:44.456Z,92.51
2019-05-12T00:53:44.470Z,92.61
2019-05-12T00:54:44.485Z,92.23
2019-05-12T00:55:44.502Z,92.32
2019-05-12T00:56:44.519Z,91.94
2019-05-12T00:57:44.530Z,91.66
2019-05-12T00:58:44.541Z,91.38
2019-05-12T00:59:44.560Z,92.04
2019-05-12T01:00:44.579Z,91.75
2019-05-12T01:01:44.590Z,92.42
2019-05-12T01:02:44.602Z,92.42
2019-05-12T01:03:44.614Z,92.32
2019-05-12T01:04:44.636Z,92.47
2019-05-12T01:05:44.655Z,91.42
2019-05-12T01:06:44.660Z,91.14
2019-05-12T01:07:44.674Z,91.24
2019-05-12T01:08:44.703Z,90.90
2019-05-12T01:09:44.710Z,90.62
2019-05-12T01:10:44.725Z,91.00
2019-05-12T01:11:44.745Z,91.19
2019-05-12T01:12:44.763Z,91.56
2019-05-12T01:13:44.769Z,90.81
2019-05-12T01:14:44.779Z,90.81
2019-05-12T01:15:44.792Z,89.86
2019-05-12T01:16:44.809Z,90.52
2019-05-12T01:17:44.831Z,90.62
2019-05-12T01:18:44.879Z,90.90
2019-05-12T01:19:44.849Z,91.38
2019-05-12T01:20:44.871Z,89.95
2019-05-12T01:21:44.881Z,90.71
2019-05-12T01:22:44.893Z,89.00
2019-05-12T01:23:56.395Z,89.76
2019-05-12T01:24:44.927Z,89.39
2019-05-12T01:25:44.937Z,89.39
2019-05-12T01:26:44.952Z,89.33
2019-05-12T01:27:44.965Z,89.81
2019-05-12T01:28:44.985Z,90.00
2019-05-12T01:29:44.995Z,89.86
2019-05-12T01:30:45.015Z,89.90
2019-05-12T01:31:45.023Z,90.00
2019-05-12T01:32:45.050Z,89.39
2019-05-12T01:33:45.056Z,88.53
2019-05-12T01:34:45.067Z,88.34
2019-05-12T01:35:45.083Z,88.15
2019-05-12T01:36:45.099Z,88.15
2019-05-12T01:37:45.112Z,88.67
2019-05-12T01:38:45.133Z,89.90
2019-05-12T01:39:45.145Z,89.05
2019-05-12T01:40:45.154Z,88.76
2019-05-12T01:41:45.169Z,89.24
2019-05-12T01:42:45.182Z,89.90
2019-05-12T01:43:45.211Z,89.53
2019-05-12T01:44:45.215Z,89.14
2019-05-12T01:45:45.241Z,88.57
2019-05-12T01:46:45.248Z,88.39
2019-05-12T01:47:45.259Z,88.76
2019-05-12T01:48:45.272Z,88.76
2019-05-12T01:49:45.287Z,89.14
2019-05-12T01:50:47.448Z,88.76
2019-05-12T01:51:47.540Z,88.20
2019-05-12T01:52:47.701Z,88.01
2019-05-12T01:53:45.347Z,88.57
2019-05-12T01:54:45.369Z,87.72
2019-05-12T01:55:45.376Z,89.14
2019-05-12T01:56:45.388Z,89.24
2019-05-12T01:57:45.410Z,90.09
2019-05-12T01:58:45.418Z,90.05
2019-05-12T01:59:45.436Z,89.38
2019-05-12T02:00:45.445Z,89.67
2019-05-12T02:01:45.470Z,89.57
2019-05-12T02:02:47.895Z,89.19
2019-05-12T02:03:45.491Z,88.81
2019-05-12T02:04:45.512Z,88.81
2019-05-12T02:05:45.526Z,88.81
2019-05-12T02:06:45.537Z,88.90
2019-05-12T02:07:47.816Z,89.19
2019-05-12T02:08:47.654Z,88.90
2019-05-12T02:09:48.007Z,88.90
2019-05-12T02:10:47.978Z,89.28
2019-05-12T02:11:45.613Z,88.81
2019-05-12T02:12:45.628Z,89.19
2019-05-12T02:13:45.638Z,89.19
2019-05-12T02:14:45.650Z,89.47
2019-05-12T02:15:45.667Z,89.00
2019-05-12T02:16:47.601Z,88.90
2019-05-12T02:17:47.972Z,89.09
2019-05-12T02:18:45.711Z,89.09
2019-05-12T02:19:47.991Z,89.00
2019-05-12T02:20:45.739Z,89.38
2019-05-12T02:21:45.753Z,89.57
2019-05-12T02:22:47.781Z,89.57
2019-05-12T02:23:47.668Z,89.86
2019-05-12T02:24:47.770Z,89.57
2019-05-12T02:25:48.136Z,89.57
2019-05-12T02:26:45.830Z,90.37
2019-05-12T02:27:47.623Z,89.80
2019-05-12T02:28:47.905Z,90.14
2019-05-12T02:29:48.038Z,90.09
2019-05-12T02:30:45.887Z,90.19
2019-05-12T02:31:45.923Z,90.28
2019-05-12T02:32:52.478Z,90.28
2019-05-12T02:33:45.936Z,90.19
2019-05-12T02:34:45.951Z,90.09
2019-05-12T02:35:45.963Z,90.19
2019-05-12T02:36:45.994Z,89.80
2019-05-12T02:37:45.994Z,90.00
2019-05-12T02:38:46.006Z,90.28
2019-05-12T02:39:46.020Z,90.00
2019-05-12T02:40:46.038Z,90.09
2019-05-12T02:41:46.057Z,90.00
2019-05-12T02:42:46.672Z,90.75
2019-05-12T02:43:46.176Z,90.56
2019-05-12T02:44:46.107Z,90.85
2019-05-12T02:45:46.113Z,90.66
2019-05-12T02:46:46.132Z,90.89
2019-05-12T02:47:46.140Z,91.56
2019-05-12T02:48:46.162Z,91.47
2019-05-12T02:49:46.185Z,91.08
2019-05-12T02:50:46.196Z,90.61
2019-05-12T02:51:46.203Z,90.99
2019-05-12T02:52:46.222Z,91.47
2019-05-12T02:53:47.279Z,91.85
2019-05-12T02:54:55.279Z,90.99
2019-05-12T02:55:46.270Z,90.89
2019-05-12T02:56:46.285Z,91.18
2019-05-12T02:57:46.295Z,91.18
2019-05-12T02:58:46.304Z,91.18
2019-05-12T02:59:46.325Z,91.18
2019-05-12T03:00:46.342Z,91.47
2019-05-12T03:01:46.357Z,91.37
2019-05-12T03:02:46.369Z,91.56
2019-05-12T03:03:46.383Z,91.37
2019-05-12T03:04:46.398Z,91.56
2019-05-12T03:05:46.418Z,90.80
2019-05-12T03:06:46.428Z,91.66
2019-05-12T03:07:46.447Z,91.37
2019-05-12T03:08:46.466Z,92.22
2019-05-12T03:09:46.474Z,91.66
2019-05-12T03:10:46.490Z,91.85
2019-05-12T03:11:46.506Z,91.94
2019-05-12T03:12:46.526Z,91.75
2019-05-12T03:13:46.535Z,92.22
2019-05-12T03:14:46.552Z,91.56
2019-05-12T03:15:46.563Z,91.85
2019-05-12T03:16:46.581Z,92.22
2019-05-12T03:17:46.594Z,91.94
2019-05-12T03:18:46.613Z,92.03
2019-05-12T03:19:46.631Z,91.94
2019-05-12T03:20:46.652Z,91.75
2019-05-12T03:21:46.657Z,91.66
2019-05-12T03:22:46.674Z,92.13
2019-05-12T03:23:46.688Z,92.03
2019-05-12T03:25:05.942Z,92.61
2019-05-12T03:25:46.725Z,91.75
2019-05-12T03:26:46.734Z,92.13
2019-05-12T03:27:46.759Z,91.66
2019-05-12T03:28:46.761Z,91.85
2019-05-12T03:29:46.772Z,91.75
2019-05-12T03:30:48.847Z,91.75
2019-05-12T03:31:48.796Z,91.66
2019-05-12T03:32:47.839Z,92.13
2019-05-12T03:33:52.915Z,92.13
2019-05-12T03:34:47.784Z,91.66
2019-05-12T03:35:53.035Z,91.66
2019-05-12T03:36:51.324Z,92.03
2019-05-12T03:37:47.089Z,92.22
2019-05-12T03:38:46.983Z,91.94
2019-05-12T03:39:46.956Z,92.51
2019-05-12T03:40:46.948Z,91.75
2019-05-12T03:41:46.955Z,92.13
2019-05-12T03:42:46.973Z,91.85
2019-05-12T03:43:47.009Z,92.70
2019-05-12T03:44:47.004Z,92.80
2019-05-12T03:45:47.021Z,92.80
2019-05-12T03:46:47.037Z,92.41
2019-05-12T03:47:47.051Z,92.22
2019-05-12T03:48:47.065Z,92.70
2019-05-12T03:49:47.136Z,92.32
2019-05-12T03:50:47.100Z,92.70
2019-05-12T03:51:47.107Z,92.61
2019-05-12T03:52:47.124Z,91.85
2019-05-12T03:53:47.182Z,92.80
2019-05-12T03:54:47.155Z,92.70
2019-05-12T03:55:47.479Z,92.03
2019-05-12T03:56:47.183Z,92.70
2019-05-12T03:57:47.202Z,92.51
2019-05-12T03:58:47.225Z,92.61
2019-05-12T03:59:47.233Z,92.22
2019-05-12T04:00:47.255Z,92.51
2019-05-12T04:01:47.263Z,92.51
2019-05-12T04:02:47.277Z,92.61
2019-05-12T04:03:47.293Z,92.13
2019-05-12T04:04:47.314Z,92.32
2019-05-12T04:05:47.323Z,92.51
2019-05-12T04:06:47.344Z,92.03
2019-05-12T04:07:47.354Z,92.51
2019-05-12T04:08:47.368Z,92.13
2019-05-12T04:09:47.384Z,92.41
2019-05-12T04:10:47.397Z,92.61
2019-05-12T04:11:47.417Z,92.70
2019-05-12T04:12:47.435Z,92.22
2019-05-12T04:13:47.444Z,92.51
2019-05-12T04:14:47.464Z,92.61
2019-05-12T04:15:47.479Z,92.32
2019-05-12T04:16:47.496Z,91.99
2019-05-12T04:17:47.510Z,92.13
2019-05-12T04:18:47.522Z,92.32
2019-05-12T04:19:47.536Z,92.37
2019-05-12T04:20:47.552Z,92.51
2019-05-12T04:21:47.574Z,92.22
2019-05-12T04:22:47.577Z,92.41
2019-05-12T04:23:47.599Z,92.46
2019-05-12T04:24:47.611Z,92.80
2019-05-12T04:25:52.887Z,92.80
2019-05-12T04:26:47.639Z,92.99
2019-05-12T04:27:47.659Z,92.89
2019-05-12T04:28:47.677Z,92.03
2019-05-12T04:29:47.688Z,92.99
2019-05-12T04:30:47.751Z,92.89
2019-05-12T04:31:47.722Z,92.32
2019-05-12T04:32:47.735Z,92.99
2019-05-12T04:33:47.755Z,92.51
2019-05-12T04:34:47.763Z,92.70
2019-05-12T04:35:47.786Z,93.08
2019-05-12T04:36:47.794Z,92.32
2019-05-12T04:37:47.810Z,92.61
2019-05-12T04:38:47.828Z,92.61
2019-05-12T04:39:47.875Z,92.99
2019-05-12T04:40:47.856Z,92.70
2019-05-12T04:41:47.894Z,92.89
2019-05-12T04:42:47.900Z,93.27
2019-05-12T04:43:47.909Z,92.51
2019-05-12T04:44:47.930Z,92.89
2019-05-12T04:45:47.953Z,92.61
2019-05-12T04:46:47.946Z,93.18
2019-05-12T04:47:47.962Z,93.08
2019-05-12T04:48:47.981Z,92.70
2019-05-12T04:49:47.993Z,92.70
2019-05-12T04:50:48.028Z,92.75
2019-05-12T04:51:48.030Z,93.23
2019-05-12T04:52:48.035Z,92.75
2019-05-12T04:53:48.066Z,93.23
2019-05-12T04:54:48.078Z,93.55
2019-05-12T04:56:06.274Z,92.89
2019-05-12T04:56:48.113Z,92.70
2019-05-12T04:57:48.120Z,93.13
2019-05-12T04:58:48.138Z,93.08
2019-05-12T04:59:48.149Z,92.79
2019-05-12T05:00:48.165Z,92.41
2019-05-12T05:01:48.181Z,92.89
2019-05-12T05:02:48.195Z,93.18
2019-05-12T05:03:48.218Z,93.27
2019-05-12T05:04:48.224Z,92.41
2019-05-12T05:05:48.238Z,92.94
2019-05-12T05:06:48.259Z,93.46
2019-05-12T05:07:48.275Z,92.89
2019-05-12T05:08:48.303Z,92.13
2019-05-12T05:09:48.305Z,92.18
2019-05-12T05:10:48.322Z,92.60
2019-05-12T05:11:48.344Z,92.65
2019-05-12T05:12:48.356Z,92.46
2019-05-12T05:13:48.369Z,92.84
2019-05-12T05:14:48.385Z,92.84
2019-05-12T05:15:48.403Z,92.50
2019-05-12T05:16:48.422Z,93.08
2019-05-12T05:17:48.435Z,92.55
2019-05-12T05:18:48.452Z,92.60
2019-05-12T05:19:48.464Z,93.55
2019-05-12T05:20:48.481Z,94.17
2019-05-12T05:21:48.501Z,93.79
2019-05-12T05:22:48.509Z,93.60
2019-05-12T05:23:48.528Z,93.60
2019-05-12T05:24:48.546Z,93.51
2019-05-12T05:25:48.566Z,93.22
2019-05-12T05:26:48.580Z,93.13
2019-05-12T05:27:48.595Z,93.46
2019-05-12T05:28:48.614Z,93.08
2019-05-12T05:29:48.631Z,92.69
2019-05-12T05:30:48.643Z,92.65
2019-05-12T05:31:48.660Z,91.98
2019-05-12T05:32:48.670Z,91.74
2019-05-12T05:33:48.698Z,90.64
2019-05-12T05:34:53.689Z,90.74
2019-05-12T05:35:48.723Z,91.31
2019-05-12T05:36:51.092Z,91.31
2019-05-12T05:37:48.771Z,91.50
2019-05-12T05:38:51.172Z,91.69
2019-05-12T05:39:49.797Z,91.41
2019-05-12T05:40:48.821Z,92.12
2019-05-12T05:41:50.935Z,91.27
2019-05-12T05:42:48.846Z,90.79
2019-05-12T05:43:54.258Z,90.79
2019-05-12T05:44:48.872Z,90.88
2019-05-12T05:45:48.897Z,90.12
2019-05-12T05:46:50.298Z,90.31
2019-05-12T05:47:49.179Z,90.98
2019-05-12T05:48:48.941Z,90.12
2019-05-12T05:49:48.958Z,90.64
2019-05-12T05:50:48.980Z,89.54
2019-05-12T05:51:54.339Z,90.22
2019-05-12T05:52:49.013Z,90.12
2019-05-12T05:53:50.178Z,89.88
2019-05-12T05:54:49.047Z,89.21
2019-05-12T05:55:50.409Z,88.69
2019-05-12T05:56:58.440Z,90.50
2019-05-12T05:57:49.097Z,90.45
2019-05-12T05:58:51.914Z,89.40
2019-05-12T05:59:49.133Z,89.73
2019-05-12T06:00:54.816Z,89.49
2019-05-12T06:01:51.949Z,87.82
2019-05-12T06:02:49.192Z,86.96
2019-05-12T06:03:49.199Z,86.10
2019-05-12T06:04:49.898Z,85.33
2019-05-12T06:05:49.240Z,85.62
2019-05-12T06:06:52.796Z,85.33
2019-05-12T06:07:49.267Z,85.42
2019-05-12T06:08:49.294Z,85.52
2019-05-12T06:09:49.313Z,84.66
2019-05-12T06:10:49.339Z,84.85
2019-05-12T06:11:49.344Z,85.28
2019-05-12T06:12:50.945Z,84.84
2019-05-12T06:13:49.385Z,84.36
2019-05-12T06:14:55.207Z,83.89
2019-05-12T06:15:49.418Z,83.17
2019-05-12T06:16:49.435Z,82.28
2019-05-12T06:17:49.453Z,83.13
2019-05-12T06:18:49.470Z,84.05
2019-05-12T06:19:49.482Z,84.91
2019-05-12T06:20:49.509Z,85.19
2019-05-12T06:21:49.525Z,84.91
2019-05-12T06:22:54.570Z,84.43
2019-05-12T06:23:49.558Z,85.19
2019-05-12T06:24:54.859Z,85.10
2019-05-12T06:25:51.609Z,85.82
2019-05-12T06:26:57.657Z,86.01
2019-05-12T06:27:51.130Z,85.91
2019-05-12T06:28:49.656Z,85.25
2019-05-12T06:29:54.447Z,86.30
2019-05-12T06:30:50.356Z,86.24
2019-05-12T06:31:49.717Z,86.24
2019-05-12T06:32:51.804Z,86.15
2019-05-12T06:33:49.746Z,85.38
2019-05-12T06:34:50.833Z,85.29
2019-05-12T06:35:49.784Z,84.81
2019-05-12T06:36:49.796Z,83.95
2019-05-12T06:37:57.762Z,82.90
2019-05-12T06:38:49.851Z,82.90
2019-05-12T06:39:51.021Z,83.13
2019-05-12T06:40:49.892Z,82.08
2019-05-12T06:41:49.877Z,81.89
2019-05-12T06:42:53.971Z,81.74
2019-05-12T06:43:49.945Z,82.31
2019-05-12T06:44:54.893Z,81.93
2019-05-12T06:45:49.967Z,81.56
2019-05-12T06:46:53.574Z,81.76
2019-05-12T06:47:51.733Z,81.76
2019-05-12T06:48:50.022Z,81.47
2019-05-12T06:49:56.458Z,82.09
2019-05-12T06:50:50.065Z,83.09
2019-05-12T06:51:53.783Z,84.05
2019-05-12T06:52:50.076Z,84.14
2019-05-12T06:53:50.091Z,84.23
2019-05-12T06:54:56.425Z,82.29
2019-05-12T06:55:50.125Z,82.09
2019-05-12T06:56:55.291Z,82.28
2019-05-12T06:57:50.406Z,81.79
2019-05-12T06:58:50.182Z,81.41
2019-05-12T06:59:51.425Z,79.88
2019-05-12T07:00:50.224Z,80.04
2019-05-12T07:01:54.966Z,80.17
2019-05-12T07:02:54.739Z,80.84
2019-05-12T07:03:50.271Z,80.92
2019-05-12T07:04:56.616Z,79.20
2019-05-12T07:05:50.303Z,77.25
2019-05-12T07:06:56.160Z,78.36
2019-05-12T07:07:50.340Z,77.28
2019-05-12T07:09:02.285Z,76.04
2019-05-12T07:09:53.747Z,76.96
2019-05-12T07:10:59.782Z,78.11
2019-05-12T07:12:01.765Z,77.38
2019-05-12T07:12:58.825Z,75.79
2019-05-12T07:14:01.292Z,75.22
2019-05-12T07:14:55.626Z,75.79
2019-05-12T07:15:50.485Z,75.79
2019-05-12T07:16:55.055Z,76.52
2019-05-12T07:17:50.519Z,77.34
2019-05-12T07:18:50.542Z,78.49
2019-05-12T07:19:56.354Z,79.16
2019-05-12T07:20:50.584Z,78.87
2019-05-12T07:21:55.405Z,78.68
2019-05-12T07:22:50.613Z,78.30
2019-05-12T07:23:50.629Z,78.20
2019-05-12T07:24:52.803Z,78.47
2019-05-12T07:25:50.660Z,76.02
2019-05-12T07:26:56.320Z,74.84
2019-05-12T07:27:54.905Z,74.58
2019-05-12T07:28:50.742Z,74.24
2019-05-12T07:29:50.742Z,73.91
2019-05-12T07:30:50.753Z,74.24
2019-05-12T07:31:50.780Z,73.72
2019-05-12T07:32:51.233Z,73.50
2019-05-12T07:33:54.006Z,74.80
2019-05-12T07:34:50.831Z,75.37
2019-05-12T07:35:53.465Z,75.27
2019-05-12T07:36:50.873Z,75.18
2019-05-12T07:37:50.891Z,75.91
2019-05-12T07:38:55.853Z,75.78
2019-05-12T07:39:50.927Z,75.78
2019-05-12T07:40:51.027Z,75.10
2019-05-12T07:41:52.164Z,74.19
2019-05-12T07:42:50.999Z,72.56
2019-05-12T07:43:56.693Z,72.72
2019-05-12T07:44:51.021Z,73.39
2019-05-12T07:45:53.938Z,73.58
2019-05-12T07:46:51.068Z,73.46
2019-05-12T07:47:51.075Z,71.52
2019-05-12T07:48:51.105Z,70.12
2019-05-12T07:49:53.610Z,67.05
2019-05-12T07:50:56.458Z,66.29
2019-05-12T07:51:51.215Z,67.76
2019-05-12T07:52:51.223Z,68.96
2019-05-12T07:53:55.390Z,71.11
2019-05-12T07:54:53.713Z,70.31
2019-05-12T07:55:53.180Z,67.47
2019-05-12T07:56:53.805Z,66.71
2019-05-12T07:57:57.896Z,66.35
2019-05-12T07:58:56.496Z,64.15
2019-05-12T07:59:51.300Z,62.87
2019-05-12T08:00:53.944Z,62.87
2019-05-12T08:01:54.332Z,61.75
2019-05-12T08:02:53.557Z,62.52
2019-05-12T08:03:57.329Z,61.66
2019-05-12T08:04:51.399Z,60.79
2019-05-12T08:05:56.343Z,62.52
2019-05-12T08:06:53.688Z,64.76
2019-05-12T08:07:53.452Z,64.82
2019-05-12T08:08:58.147Z,63.48
2019-05-12T08:09:53.545Z,63.92
2019-05-12T08:10:55.661Z,63.89
2019-05-12T08:11:53.909Z,62.71
2019-05-12T08:12:59.566Z,63.29
2019-05-12T08:13:54.103Z,63.22
2019-05-12T08:14:51.604Z,63.92
2019-05-12T08:15:55.604Z,62.13
2019-05-12T08:16:54.112Z,60.99
2019-05-12T08:17:55.306Z,60.96
2019-05-12T08:18:53.491Z,61.94
2019-05-12T08:19:53.618Z,62.19
2019-05-12T08:20:53.779Z,60.25
2019-05-12T08:21:53.613Z,60.53
2019-05-12T08:22:54.014Z,61.08
2019-05-12T08:23:53.450Z,60.57
2019-05-12T08:24:53.776Z,60.35
2019-05-12T08:25:53.838Z,61.05
2019-05-12T08:26:59.706Z,62.55
2019-05-12T08:27:59.380Z,63.03
2019-05-12T08:28:53.541Z,64.25
2019-05-12T08:30:00.834Z,64.79
2019-05-12T08:30:52.708Z,64.12
2019-05-12T08:31:54.617Z,64.47
2019-05-12T08:32:56.344Z,64.47
2019-05-12T08:33:53.787Z,65.33
2019-05-12T08:34:54.134Z,65.52
2019-05-12T08:35:52.020Z,65.84
2019-05-12T08:36:56.725Z,64.34
2019-05-12T08:37:54.332Z,65.74
2019-05-12T08:38:53.634Z,65.23
2019-05-12T08:40:02.174Z,64.95
2019-05-12T08:40:54.205Z,63.83
2019-05-12T08:41:53.483Z,62.62
2019-05-12T08:42:53.993Z,62.55
2019-05-12T08:43:57.884Z,62.65
2019-05-12T08:44:54.117Z,62.43
2019-05-12T08:45:53.596Z,62.81
2019-05-12T08:46:56.358Z,63.13
2019-05-12T08:47:54.154Z,61.08
2019-05-12T08:48:57.840Z,63.10
2019-05-12T08:49:58.292Z,64.50
2019-05-12T08:50:54.532Z,64.12
2019-05-12T08:51:55.754Z,64.56
2019-05-12T08:52:53.838Z,63.03
2019-05-12T08:53:53.921Z,63.32
2019-05-12T08:54:53.658Z,62.90
2019-05-12T08:55:53.843Z,63.48
2019-05-12T08:56:59.355Z,63.76
2019-05-12T08:57:54.192Z,63.19
2019-05-12T08:58:54.358Z,63.29
2019-05-12T08:59:54.596Z,63.39
2019-05-12T09:00:54.747Z,64.53
2019-05-12T09:01:54.018Z,64.43
2019-05-12T09:02:53.930Z,64.02
2019-05-12T09:03:53.349Z,63.06
2019-05-12T09:04:55.559Z,62.40
2019-05-12T09:05:53.688Z,63.48
2019-05-12T09:06:56.383Z,62.40
2019-05-12T09:07:54.072Z,62.33
2019-05-12T09:08:54.229Z,62.90
2019-05-12T09:09:53.343Z,60.89
2019-05-12T09:10:55.348Z,60.32
2019-05-12T09:11:54.213Z,60.41
2019-05-12T09:12:54.156Z,61.28
2019-05-12T09:14:00.196Z,60.61
2019-05-12T09:14:54.569Z,60.96
2019-05-12T09:15:54.139Z,60.13
2019-05-12T09:16:53.712Z,60.25
2019-05-12T09:17:56.878Z,59.65
2019-05-12T09:18:55.142Z,59.55
2019-05-12T09:19:54.986Z,59.17
2019-05-12T09:20:55.503Z,60.41
2019-05-12T09:21:54.217Z,62.14
2019-05-12T09:23:00.663Z,61.40
2019-05-12T09:23:55.854Z,61.31
2019-05-12T09:24:53.413Z,61.37
2019-05-12T09:25:53.721Z,61.28
2019-05-12T09:26:53.842Z,60.64
2019-05-12T09:27:54.241Z,60.93
2019-05-12T09:28:54.306Z,61.15
2019-05-12T09:29:53.995Z,61.05
2019-05-12T09:30:54.354Z,60.28
2019-05-12T09:31:53.222Z,59.45
2019-05-12T09:32:55.984Z,58.46
2019-05-12T09:33:54.708Z,59.45
2019-05-12T09:34:58.111Z,59.55
2019-05-12T09:35:54.043Z,59.64
2019-05-12T09:36:59.610Z,60.05
2019-05-12T09:37:53.594Z,59.29
2019-05-12T09:39:01.299Z,58.81
2019-05-12T09:39:53.846Z,58.11
2019-05-12T09:41:00.733Z,57.63
2019-05-12T09:41:55.292Z,59.16
2019-05-12T09:42:53.356Z,58.30
2019-05-12T09:43:53.507Z,58.69
2019-05-12T09:44:53.956Z,58.08
2019-05-12T09:45:56.474Z,57.41
2019-05-12T09:46:53.536Z,57.38
2019-05-12T09:47:53.990Z,58.05
2019-05-12T09:48:55.093Z,58.53
2019-05-12T09:49:53.620Z,57.86
2019-05-12T09:51:00.365Z,59.20
2019-05-12T09:51:54.385Z,60.03
2019-05-12T09:52:55.531Z,59.11
2019-05-12T09:53:55.501Z,59.68
2019-05-12T09:54:53.537Z,60.54
2019-05-12T09:55:53.904Z,59.45
2019-05-12T09:56:55.422Z,59.48
2019-05-12T09:57:54.394Z,59.23
2019-05-12T09:59:01.480Z,58.91
2019-05-12T09:59:58.262Z,59.87
2019-05-12T10:00:54.350Z,61.11
2019-05-12T10:01:54.184Z,60.38
2019-05-12T10:02:59.381Z,59.48
2019-05-12T10:03:54.427Z,60.35
2019-05-12T10:04:56.349Z,61.57
2019-05-12T10:05:53.666Z,62.65
2019-05-12T10:06:53.672Z,61.69
2019-05-12T10:07:53.706Z,61.21
2019-05-12T10:08:54.884Z,60.09
2019-05-12T10:09:55.032Z,59.61
2019-05-12T10:10:53.779Z,59.97
2019-05-12T10:12:00.309Z,61.05
2019-05-12T10:12:53.808Z,60.12
2019-05-12T10:13:54.352Z,60.19
2019-05-12T10:14:53.897Z,59.30
2019-05-12T10:15:58.683Z,60.54
2019-05-12T10:16:53.866Z,61.79
2019-05-12T10:17:54.058Z,62.33
2019-05-12T10:18:53.929Z,62.93
2019-05-12T10:19:57.864Z,60.99
2019-05-12T10:20:53.961Z,60.16
2019-05-12T10:21:55.183Z,59.48
2019-05-12T10:22:54.292Z,57.67
2019-05-12T10:24:00.647Z,57.38
2019-05-12T10:24:57.877Z,56.99
2019-05-12T10:25:54.028Z,57.21
2019-05-12T10:26:54.277Z,56.64
2019-05-12T10:27:54.091Z,54.99
2019-05-12T10:28:58.198Z,56.04
2019-05-12T10:29:54.272Z,56.13
2019-05-12T10:30:56.933Z,57.28
2019-05-12T10:31:54.143Z,56.64
2019-05-12T10:32:54.182Z,56.29
2019-05-12T10:33:57.158Z,57.31
2019-05-12T10:34:54.192Z,57.50
2019-05-12T10:35:54.293Z,57.63
2019-05-12T10:36:54.257Z,57.28
2019-05-12T10:37:54.255Z,58.52
2019-05-12T10:38:54.284Z,59.06
2019-05-12T10:39:54.291Z,57.98
2019-05-12T10:40:54.304Z,57.79
2019-05-12T10:41:54.815Z,57.41
2019-05-12T10:42:54.365Z,56.64
2019-05-12T10:43:57.807Z,56.93
2019-05-12T10:44:56.565Z,57.79
2019-05-12T10:45:54.438Z,58.87
2019-05-12T10:46:54.411Z,57.63
2019-05-12T10:47:54.458Z,56.51
2019-05-12T10:48:54.454Z,56.76
2019-05-12T10:49:54.485Z,58.39
2019-05-12T10:50:54.491Z,57.43
2019-05-12T10:51:54.511Z,56.26
2019-05-12T10:52:54.537Z,56.16
2019-05-12T10:53:57.404Z,56.16
2019-05-12T10:54:54.587Z,56.26
2019-05-12T10:55:54.596Z,56.83
2019-05-12T10:56:54.858Z,56.42
2019-05-12T10:58:01.586Z,57.03
2019-05-12T10:58:54.673Z,57.21
2019-05-12T10:59:54.661Z,58.72
2019-05-12T11:00:58.812Z,59.77
2019-05-12T11:01:54.691Z,61.05
2019-05-12T11:02:54.716Z,61.18
2019-05-12T11:03:54.757Z,60.41
2019-05-12T11:04:54.750Z,59.71
2019-05-12T11:06:02.332Z,59.45
2019-05-12T11:06:54.785Z,59.16
2019-05-12T11:07:54.834Z,59.52
2019-05-12T11:08:54.827Z,59.90
2019-05-12T11:09:54.842Z,58.65
2019-05-12T11:10:57.680Z,60.00
2019-05-12T11:11:54.895Z,59.45
2019-05-12T11:12:59.212Z,58.78
2019-05-12T11:13:54.972Z,57.03
2019-05-12T11:14:54.935Z,57.31
2019-05-12T11:15:54.950Z,56.71
2019-05-12T11:16:54.972Z,57.19
2019-05-12T11:17:54.993Z,57.19
2019-05-12T11:18:55.013Z,57.28
2019-05-12T11:19:55.030Z,57.60
2019-05-12T11:20:55.046Z,58.94
2019-05-12T11:21:55.085Z,56.29
2019-05-12T11:22:55.107Z,56.41
2019-05-12T11:23:55.100Z,55.93
2019-05-12T11:24:55.872Z,54.11
2019-05-12T11:25:55.168Z,53.63
2019-05-12T11:26:55.160Z,54.37
2019-05-12T11:27:55.174Z,55.49
2019-05-12T11:28:55.192Z,55.68
2019-05-12T11:29:55.235Z,56.42
2019-05-12T11:30:55.230Z,57.67
2019-05-12T11:31:55.250Z,56.93
2019-05-12T11:32:55.264Z,57.38
2019-05-12T11:33:55.284Z,58.24
2019-05-12T11:34:55.315Z,59.77
2019-05-12T11:35:55.324Z,60.16
2019-05-12T11:36:55.336Z,59.77
2019-05-12T11:37:55.365Z,60.73
2019-05-12T11:38:55.383Z,61.08
2019-05-12T11:39:55.394Z,61.37
2019-05-12T11:40:55.419Z,60.93
2019-05-12T11:41:55.533Z,61.02
2019-05-12T11:42:59.837Z,62.59
2019-05-12T11:43:55.498Z,63.06
2019-05-12T11:44:55.486Z,61.94
2019-05-12T11:45:55.510Z,61.40
2019-05-12T11:46:55.522Z,57.72
2019-05-12T11:47:59.122Z,58.59
2019-05-12T11:48:55.563Z,59.29
2019-05-12T11:49:58.541Z,58.81
2019-05-12T11:50:55.635Z,58.23
2019-05-12T11:51:55.647Z,57.28
2019-05-12T11:52:55.643Z,57.28
2019-05-12T11:53:55.654Z,56.31
2019-05-12T11:54:55.728Z,56.51
2019-05-12T11:55:55.747Z,56.60
2019-05-12T11:56:55.745Z,57.85
2019-05-12T11:58:00.459Z,57.18
2019-05-12T11:58:55.758Z,57.08
2019-05-12T12:00:02.011Z,56.63
2019-05-12T12:00:58.650Z,56.53
2019-05-12T12:01:56.167Z,56.44
2019-05-12T12:02:55.833Z,56.12
2019-05-12T12:03:55.849Z,56.89
2019-05-12T12:04:55.858Z,55.64
2019-05-12T12:05:55.932Z,55.04
2019-05-12T12:06:55.926Z,55.90
2019-05-12T12:07:56.194Z,56.64
2019-05-12T12:08:55.946Z,57.79
2019-05-12T12:09:59.484Z,56.93
2019-05-12T12:10:56.005Z,57.06
2019-05-12T12:12:02.476Z,57.46
2019-05-12T12:12:56.014Z,56.44
2019-05-12T12:14:00.415Z,54.61
2019-05-12T12:14:56.050Z,54.42
2019-05-12T12:16:00.385Z,55.02
2019-05-12T12:16:56.091Z,55.02
2019-05-12T12:17:56.143Z,55.32
2019-05-12T12:19:02.254Z,55.00
2019-05-12T12:19:56.174Z,54.17
2019-05-12T12:21:02.978Z,56.26
2019-05-12T12:21:56.192Z,56.54
2019-05-12T12:23:00.113Z,56.54
2019-05-12T12:23:56.226Z,55.49
2019-05-12T12:24:56.240Z,55.13
2019-05-12T12:25:56.283Z,54.94
2019-05-12T12:26:56.275Z,54.94
2019-05-12T12:27:56.296Z,56.31
2019-05-12T12:28:56.324Z,56.73
2019-05-12T12:29:56.358Z,54.90
2019-05-12T12:31:00.377Z,53.85
2019-05-12T12:31:56.397Z,52.50
2019-05-12T12:33:00.273Z,52.24
2019-05-12T12:33:56.408Z,52.81
2019-05-12T12:34:56.440Z,52.05
2019-05-12T12:36:00.567Z,52.81
2019-05-12T12:36:56.476Z,54.13
2019-05-12T12:37:56.497Z,52.69
2019-05-12T12:38:56.507Z,54.16
2019-05-12T12:39:56.554Z,53.97
2019-05-12T12:40:56.537Z,55.99
2019-05-12T12:42:00.403Z,55.41
2019-05-12T12:42:56.594Z,54.25
2019-05-12T12:43:56.621Z,51.81
2019-05-12T12:44:58.772Z,52.79
2019-05-12T12:45:56.653Z,53.56
2019-05-12T12:47:00.143Z,52.50
2019-05-12T12:47:56.678Z,53.94
2019-05-12T12:49:00.181Z,53.66
2019-05-12T12:49:56.708Z,54.04
2019-05-12T12:50:56.740Z,53.91
2019-05-12T12:51:56.772Z,53.82
2019-05-12T12:52:56.766Z,53.36